Concordia, Kansas
Current Conditions -  °F | °C
As of 4:55 PM on Saturday 25 Oct 2014 (Local Time) from KCNK Reporting Station
Clear Clear  
Wind Chill: 28°   Ceiling: Unl
Heat Index: 28°   Visibility: 10mi
Dew Point: 15°   Wind: 9mph
Humidity: 45%   Direction: 90°E
Pressure: 29.99"   Gusts: NA
Location:  39.57°N, 97.66°W
Report Text: KCNK 252155Z AUTO 09008KT 10SM CLR 28/15 A2999 RMK AO2 SLP147 T02780150
Loading
Personal Weather Stations






























Interactive Weather Map New forecast layout! Learn more

10-Day Weather Forecast

Advertisements
Track Severe Weather on mobile